KOSH/OSH METAR and TAF weather

Enter ICAO airport designator
Station Type Date Time Source
KOSH METAR 2021/05/11 00:53 UTC NOAA

KOSH 110053Z 36006KT 10SM FEW080 OVC100 09/M03 A3018 RMK AO2 SLP223 T00941028


Station Type Date Time Source
KOSH Decoded METAR 2021/05/11 00:53 UTC NOAA

WITTMAN REGIONAL AIRPORT, WI, United States (KOSH) 43-58N 88-33W 248M
May 10, 2021 - 08:53 PM EDT / 2021.05.11 0053 UTC
Wind: from the N (360 degrees) at 7 MPH (6 KT):0
Visibility: 10 mile(s):0
Sky conditions: overcast
Temperature: 48.9 F (9.4 C)
Dew Point: 27.0 F (-2.8 C)
Relative Humidity: 42%
Pressure (altimeter): 30.18 in. Hg (1022 hPa)
ob: KOSH 110053Z 36006KT 10SM FEW080 OVC100 09/M03 A3018 RMK AO2 SLP223 T00941028
cycle: 1

Station Type Date Time Source
KOSH TAF 2021/05/03 12:42 UTC NOAA

TAF KOSH 031141Z 0312/0412 VRB04KT 4SM TSRA BR OVC005CB
TEMPO 0315/0318 2SM TSRA BR OVC001CB
FM031800 04005KT 4SM SHRA BR OVC006
TEMPO 0318/0321 2SM TSRA BR OVC004CB
FM040000 36007KT 4SM BR VCTS BKN005CB
FM040300 35007KT 6SM BR VCSH BKN008
FM040600 33009KT P6SM OVC010

Example: see airport list